sensor_id;sensor_type;location;lat;lon;timestamp;P1;durP1;ratioP1;P2;durP2;ratioP2
54261;SDS011;40174;52.364;6.452;2022-12-29T00:01:39;4.80;;;2.30;;
54261;SDS011;40174;52.364;6.452;2022-12-29T00:04:06;5.43;;;2.53;;
54261;SDS011;40174;52.364;6.452;2022-12-29T00:06:34;6.10;;;2.00;;
54261;SDS011;40174;52.364;6.452;2022-12-29T00:09:01;5.28;;;2.08;;
54261;SDS011;40174;52.364;6.452;2022-12-29T00:11:27;4.50;;;2.10;;
54261;SDS011;40174;52.364;6.452;2022-12-29T00:13:54;5.18;;;1.92;;
54261;SDS011;40174;52.364;6.452;2022-12-29T00:16:40;3.33;;;1.75;;
54261;SDS011;40174;52.364;6.452;2022-12-29T00:19:10;4.50;;;1.85;;
54261;SDS011;40174;52.364;6.452;2022-12-29T00:21:58;5.05;;;1.90;;
54261;SDS011;40174;52.364;6.452;2022-12-29T00:27:27;6.22;;;2.17;;
54261;SDS011;40174;52.364;6.452;2022-12-29T00:30:14;4.90;;;2.13;;
54261;SDS011;40174;52.364;6.452;2022-12-29T00:32:56;4.75;;;2.03;;
54261;SDS011;40174;52.364;6.452;2022-12-29T00:35:43;5.03;;;2.05;;
54261;SDS011;40174;52.364;6.452;2022-12-29T00:38:13;2.63;;;1.70;;
54261;SDS011;40174;52.364;6.452;2022-12-29T00:40:58;4.43;;;2.00;;
54261;SDS011;40174;52.364;6.452;2022-12-29T00:43:42;3.70;;;2.00;;
54261;SDS011;40174;52.364;6.452;2022-12-29T00:46:26;5.20;;;1.85;;
54261;SDS011;40174;52.364;6.452;2022-12-29T00:48:54;4.60;;;2.17;;
54261;SDS011;40174;52.364;6.452;2022-12-29T00:51:38;3.22;;;1.67;;
54261;SDS011;40174;52.364;6.452;2022-12-29T00:54:06;4.18;;;2.03;;
54261;SDS011;40174;52.364;6.452;2022-12-29T00:56:33;6.07;;;2.05;;
54261;SDS011;40174;52.364;6.452;2022-12-29T00:59:00;3.85;;;1.73;;
54261;SDS011;40174;52.364;6.452;2022-12-29T01:01:27;4.53;;;1.90;;
54261;SDS011;40174;52.364;6.452;2022-12-29T01:03:54;5.78;;;2.00;;
54261;SDS011;40174;52.364;6.452;2022-12-29T01:06:21;4.68;;;1.83;;
54261;SDS011;40174;52.364;6.452;2022-12-29T01:08:48;5.07;;;2.17;;
54261;SDS011;40174;52.364;6.452;2022-12-29T01:11:38;3.67;;;1.58;;
54261;SDS011;40174;52.364;6.452;2022-12-29T01:14:05;4.97;;;2.13;;
54261;SDS011;40174;52.364;6.452;2022-12-29T01:16:31;4.38;;;1.67;;
54261;SDS011;40174;52.364;6.452;2022-12-29T01:18:58;4.28;;;1.73;;
54261;SDS011;40174;52.364;6.452;2022-12-29T01:21:26;4.57;;;1.95;;
54261;SDS011;40174;52.364;6.452;2022-12-29T01:23:53;4.35;;;1.88;;
54261;SDS011;40174;52.364;6.452;2022-12-29T01:26:19;4.13;;;1.75;;
54261;SDS011;40174;52.364;6.452;2022-12-29T01:28:47;3.55;;;1.50;;
54261;SDS011;40174;52.364;6.452;2022-12-29T01:31:14;3.47;;;1.77;;
54261;SDS011;40174;52.364;6.452;2022-12-29T01:33:41;3.53;;;1.75;;
54261;SDS011;40174;52.364;6.452;2022-12-29T01:36:09;4.40;;;1.70;;
54261;SDS011;40174;52.364;6.452;2022-12-29T01:38:38;3.75;;;1.50;;
54261;SDS011;40174;52.364;6.452;2022-12-29T01:41:06;3.42;;;1.60;;
54261;SDS011;40174;52.364;6.452;2022-12-29T01:43:38;2.33;;;1.27;;
54261;SDS011;40174;52.364;6.452;2022-12-29T01:46:08;4.22;;;1.65;;
54261;SDS011;40174;52.364;6.452;2022-12-29T01:48:50;4.05;;;1.50;;
54261;SDS011;40174;52.364;6.452;2022-12-29T01:51:19;5.28;;;1.77;;
54261;SDS011;40174;52.364;6.452;2022-12-29T01:53:49;3.53;;;1.65;;
54261;SDS011;40174;52.364;6.452;2022-12-29T01:56:17;3.38;;;1.20;;
54261;SDS011;40174;52.364;6.452;2022-12-29T01:58:46;1.65;;;1.10;;
54261;SDS011;40174;52.364;6.452;2022-12-29T02:01:16;2.40;;;1.10;;
54261;SDS011;40174;52.364;6.452;2022-12-29T02:03:45;3.33;;;1.67;;
54261;SDS011;40174;52.364;6.452;2022-12-29T02:06:14;3.35;;;1.40;;
54261;SDS011;40174;52.364;6.452;2022-12-29T02:08:46;2.40;;;1.05;;
54261;SDS011;40174;52.364;6.452;2022-12-29T02:11:13;4.20;;;1.17;;
54261;SDS011;40174;52.364;6.452;2022-12-29T02:13:41;2.40;;;1.05;;
54261;SDS011;40174;52.364;6.452;2022-12-29T02:16:18;1.98;;;1.10;;
54261;SDS011;40174;52.364;6.452;2022-12-29T02:18:59;3.63;;;1.10;;
54261;SDS011;40174;52.364;6.452;2022-12-29T02:21:41;5.63;;;1.25;;
54261;SDS011;40174;52.364;6.452;2022-12-29T02:24:18;1.50;;;0.82;;
54261;SDS011;40174;52.364;6.452;2022-12-29T02:27:08;2.95;;;1.02;;
54261;SDS011;40174;52.364;6.452;2022-12-29T02:30:05;4.65;;;1.10;;
54261;SDS011;40174;52.364;6.452;2022-12-29T02:32:45;2.35;;;1.25;;
54261;SDS011;40174;52.364;6.452;2022-12-29T02:35:21;3.10;;;1.17;;
54261;SDS011;40174;52.364;6.452;2022-12-29T02:37:58;2.33;;;1.08;;
54261;SDS011;40174;52.364;6.452;2022-12-29T02:40:31;1.83;;;1.20;;
54261;SDS011;40174;52.364;6.452;2022-12-29T02:43:08;3.22;;;1.10;;
54261;SDS011;40174;52.364;6.452;2022-12-29T02:45:45;2.42;;;1.08;;
54261;SDS011;40174;52.364;6.452;2022-12-29T02:48:20;3.33;;;1.42;;
54261;SDS011;40174;52.364;6.452;2022-12-29T02:50:53;3.70;;;1.00;;
54261;SDS011;40174;52.364;6.452;2022-12-29T02:53:25;3.00;;;1.08;;
54261;SDS011;40174;52.364;6.452;2022-12-29T02:56:11;2.13;;;1.33;;
54261;SDS011;40174;52.364;6.452;2022-12-29T02:58:38;3.25;;;1.40;;
54261;SDS011;40174;52.364;6.452;2022-12-29T03:01:09;3.95;;;1.30;;
54261;SDS011;40174;52.364;6.452;2022-12-29T03:03:49;3.72;;;1.33;;
54261;SDS011;40174;52.364;6.452;2022-12-29T03:06:35;3.53;;;1.58;;
54261;SDS011;40174;52.364;6.452;2022-12-29T03:09:20;2.53;;;1.30;;
54261;SDS011;40174;52.364;6.452;2022-12-29T03:11:53;3.88;;;1.25;;
54261;SDS011;40174;52.364;6.452;2022-12-29T03:14:37;3.60;;;1.23;;
54261;SDS011;40174;52.364;6.452;2022-12-29T03:17:29;2.58;;;1.02;;
54261;SDS011;40174;52.364;6.452;2022-12-29T03:20:06;2.17;;;0.90;;
54261;SDS011;40174;52.364;6.452;2022-12-29T03:22:39;4.20;;;1.00;;
54261;SDS011;40174;52.364;6.452;2022-12-29T03:25:13;4.00;;;0.90;;
54261;SDS011;40174;52.364;6.452;2022-12-29T03:27:45;1.55;;;0.75;;
54261;SDS011;40174;52.364;6.452;2022-12-29T03:30:15;6.38;;;1.08;;
54261;SDS011;40174;52.364;6.452;2022-12-29T03:32:44;2.95;;;0.52;;
54261;SDS011;40174;52.364;6.452;2022-12-29T03:35:15;0.65;;;0.50;;
54261;SDS011;40174;52.364;6.452;2022-12-29T03:37:45;2.20;;;0.55;;
54261;SDS011;40174;52.364;6.452;2022-12-29T03:40:17;0.57;;;0.43;;
54261;SDS011;40174;52.364;6.452;2022-12-29T03:42:47;1.33;;;0.60;;
54261;SDS011;40174;52.364;6.452;2022-12-29T03:45:14;1.50;;;0.60;;
54261;SDS011;40174;52.364;6.452;2022-12-29T03:47:41;3.63;;;0.57;;
54261;SDS011;40174;52.364;6.452;2022-12-29T03:50:08;1.13;;;0.38;;
54261;SDS011;40174;52.364;6.452;2022-12-29T03:52:39;2.28;;;0.32;;
54261;SDS011;40174;52.364;6.452;2022-12-29T03:55:06;2.55;;;0.40;;
54261;SDS011;40174;52.364;6.452;2022-12-29T03:57:33;0.30;;;0.30;;
54261;SDS011;40174;52.364;6.452;2022-12-29T04:00:06;3.30;;;0.88;;
54261;SDS011;40174;52.364;6.452;2022-12-29T04:02:40;1.33;;;0.47;;
54261;SDS011;40174;52.364;6.452;2022-12-29T04:05:10;3.40;;;0.65;;
54261;SDS011;40174;52.364;6.452;2022-12-29T04:07:37;2.42;;;0.50;;
54261;SDS011;40174;52.364;6.452;2022-12-29T04:10:05;0.88;;;0.43;;
54261;SDS011;40174;52.364;6.452;2022-12-29T04:12:34;1.08;;;0.60;;
54261;SDS011;40174;52.364;6.452;2022-12-29T04:15:01;2.88;;;0.70;;
54261;SDS011;40174;52.364;6.452;2022-12-29T04:17:27;0.38;;;0.30;;
54261;SDS011;40174;52.364;6.452;2022-12-29T04:19:54;1.02;;;0.40;;
54261;SDS011;40174;52.364;6.452;2022-12-29T04:22:41;0.50;;;0.43;;
54261;SDS011;40174;52.364;6.452;2022-12-29T04:25:10;3.80;;;0.73;;
54261;SDS011;40174;52.364;6.452;2022-12-29T04:27:37;1.98;;;0.70;;
54261;SDS011;40174;52.364;6.452;2022-12-29T04:30:26;5.00;;;0.50;;
54261;SDS011;40174;52.364;6.452;2022-12-29T04:33:05;1.70;;;0.30;;
54261;SDS011;40174;52.364;6.452;2022-12-29T04:35:32;2.38;;;0.43;;
54261;SDS011;40174;52.364;6.452;2022-12-29T04:37:58;0.40;;;0.32;;
54261;SDS011;40174;52.364;6.452;2022-12-29T04:40:27;0.80;;;0.50;;
54261;SDS011;40174;52.364;6.452;2022-12-29T04:42:54;0.90;;;0.30;;
54261;SDS011;40174;52.364;6.452;2022-12-29T04:45:22;3.08;;;0.50;;
54261;SDS011;40174;52.364;6.452;2022-12-29T04:48:03;4.30;;;0.50;;
54261;SDS011;40174;52.364;6.452;2022-12-29T04:50:50;1.30;;;0.35;;
54261;SDS011;40174;52.364;6.452;2022-12-29T04:53:19;6.30;;;0.63;;
54261;SDS011;40174;52.364;6.452;2022-12-29T04:55:49;5.07;;;0.70;;
54261;SDS011;40174;52.364;6.452;2022-12-29T04:58:17;1.30;;;0.50;;
54261;SDS011;40174;52.364;6.452;2022-12-29T05:00:43;1.13;;;0.40;;
54261;SDS011;40174;52.364;6.452;2022-12-29T05:03:10;3.47;;;0.60;;
54261;SDS011;40174;52.364;6.452;2022-12-29T05:05:40;2.70;;;0.52;;
54261;SDS011;40174;52.364;6.452;2022-12-29T05:08:07;2.00;;;0.70;;
54261;SDS011;40174;52.364;6.452;2022-12-29T05:10:34;1.20;;;0.60;;
54261;SDS011;40174;52.364;6.452;2022-12-29T05:13:08;1.58;;;0.68;;
54261;SDS011;40174;52.364;6.452;2022-12-29T05:15:34;3.58;;;1.00;;
54261;SDS011;40174;52.364;6.452;2022-12-29T05:18:01;6.05;;;0.90;;
54261;SDS011;40174;52.364;6.452;2022-12-29T05:20:28;1.42;;;0.70;;
54261;SDS011;40174;52.364;6.452;2022-12-29T05:22:56;3.45;;;0.80;;
54261;SDS011;40174;52.364;6.452;2022-12-29T05:25:23;2.53;;;0.60;;
54261;SDS011;40174;52.364;6.452;2022-12-29T05:27:56;5.43;;;0.90;;
54261;SDS011;40174;52.364;6.452;2022-12-29T05:30:35;1.42;;;0.60;;
54261;SDS011;40174;52.364;6.452;2022-12-29T05:33:01;3.38;;;0.63;;
54261;SDS011;40174;52.364;6.452;2022-12-29T05:35:28;5.53;;;0.68;;
54261;SDS011;40174;52.364;6.452;2022-12-29T05:37:55;2.75;;;0.93;;
54261;SDS011;40174;52.364;6.452;2022-12-29T05:40:22;5.75;;;1.30;;
54261;SDS011;40174;52.364;6.452;2022-12-29T05:42:50;2.72;;;0.60;;
54261;SDS011;40174;52.364;6.452;2022-12-29T05:45:36;2.75;;;0.52;;
54261;SDS011;40174;52.364;6.452;2022-12-29T05:48:26;0.98;;;0.50;;
54261;SDS011;40174;52.364;6.452;2022-12-29T05:51:10;3.88;;;0.68;;
54261;SDS011;40174;52.364;6.452;2022-12-29T05:53:48;3.15;;;0.65;;
54261;SDS011;40174;52.364;6.452;2022-12-29T05:56:16;4.10;;;0.95;;
54261;SDS011;40174;52.364;6.452;2022-12-29T05:58:45;4.35;;;0.47;;
54261;SDS011;40174;52.364;6.452;2022-12-29T06:01:13;3.45;;;0.80;;
54261;SDS011;40174;52.364;6.452;2022-12-29T06:03:40;6.40;;;0.80;;
54261;SDS011;40174;52.364;6.452;2022-12-29T06:06:07;5.68;;;0.70;;
54261;SDS011;40174;52.364;6.452;2022-12-29T06:08:33;5.55;;;0.80;;
54261;SDS011;40174;52.364;6.452;2022-12-29T06:11:00;6.22;;;0.73;;
54261;SDS011;40174;52.364;6.452;2022-12-29T06:13:27;2.35;;;0.60;;
54261;SDS011;40174;52.364;6.452;2022-12-29T06:15:55;6.88;;;0.57;;
54261;SDS011;40174;52.364;6.452;2022-12-29T06:18:26;7.47;;;0.80;;
54261;SDS011;40174;52.364;6.452;2022-12-29T06:20:52;6.88;;;0.70;;
54261;SDS011;40174;52.364;6.452;2022-12-29T06:23:19;6.43;;;0.90;;
54261;SDS011;40174;52.364;6.452;2022-12-29T06:25:46;7.40;;;0.50;;
54261;SDS011;40174;52.364;6.452;2022-12-29T06:28:13;4.53;;;0.90;;
54261;SDS011;40174;52.364;6.452;2022-12-29T06:30:42;4.15;;;1.23;;
54261;SDS011;40174;52.364;6.452;2022-12-29T06:33:10;3.63;;;0.90;;
54261;SDS011;40174;52.364;6.452;2022-12-29T06:35:38;5.55;;;0.75;;
54261;SDS011;40174;52.364;6.452;2022-12-29T06:38:05;5.15;;;0.60;;
54261;SDS011;40174;52.364;6.452;2022-12-29T06:40:31;5.43;;;0.73;;
54261;SDS011;40174;52.364;6.452;2022-12-29T06:43:30;5.53;;;0.65;;
54261;SDS011;40174;52.364;6.452;2022-12-29T06:46:06;6.43;;;0.60;;
54261;SDS011;40174;52.364;6.452;2022-12-29T06:48:33;3.30;;;0.60;;
54261;SDS011;40174;52.364;6.452;2022-12-29T06:51:01;2.08;;;0.50;;
54261;SDS011;40174;52.364;6.452;2022-12-29T06:53:28;2.83;;;0.85;;
54261;SDS011;40174;52.364;6.452;2022-12-29T06:55:54;5.53;;;1.50;;
54261;SDS011;40174;52.364;6.452;2022-12-29T06:58:22;9.23;;;0.93;;
54261;SDS011;40174;52.364;6.452;2022-12-29T07:00:48;7.10;;;0.80;;
54261;SDS011;40174;52.364;6.452;2022-12-29T07:03:15;8.07;;;1.20;;
54261;SDS011;40174;52.364;6.452;2022-12-29T07:05:42;2.58;;;0.75;;
54261;SDS011;40174;52.364;6.452;2022-12-29T07:08:10;1.98;;;0.73;;
54261;SDS011;40174;52.364;6.452;2022-12-29T07:10:36;6.05;;;1.15;;
54261;SDS011;40174;52.364;6.452;2022-12-29T07:13:03;8.13;;;0.77;;
54261;SDS011;40174;52.364;6.452;2022-12-29T07:15:29;3.80;;;1.02;;
54261;SDS011;40174;52.364;6.452;2022-12-29T07:17:56;3.22;;;0.60;;
54261;SDS011;40174;52.364;6.452;2022-12-29T07:20:23;2.20;;;0.77;;
54261;SDS011;40174;52.364;6.452;2022-12-29T07:22:49;2.83;;;0.50;;
54261;SDS011;40174;52.364;6.452;2022-12-29T07:25:17;1.25;;;0.50;;
54261;SDS011;40174;52.364;6.452;2022-12-29T07:27:44;6.32;;;1.27;;
54261;SDS011;40174;52.364;6.452;2022-12-29T07:30:11;11.52;;;1.30;;
54261;SDS011;40174;52.364;6.452;2022-12-29T07:32:38;2.83;;;0.75;;
54261;SDS011;40174;52.364;6.452;2022-12-29T07:35:05;4.75;;;0.80;;
54261;SDS011;40174;52.364;6.452;2022-12-29T07:37:32;2.97;;;0.77;;
54261;SDS011;40174;52.364;6.452;2022-12-29T07:40:00;4.57;;;0.60;;
54261;SDS011;40174;52.364;6.452;2022-12-29T07:42:29;2.33;;;0.57;;
54261;SDS011;40174;52.364;6.452;2022-12-29T07:44:58;4.63;;;0.73;;
54261;SDS011;40174;52.364;6.452;2022-12-29T07:47:47;9.98;;;0.95;;
54261;SDS011;40174;52.364;6.452;2022-12-29T07:50:14;6.55;;;1.00;;
54261;SDS011;40174;52.364;6.452;2022-12-29T07:52:40;6.00;;;1.08;;
54261;SDS011;40174;52.364;6.452;2022-12-29T07:55:08;4.00;;;0.93;;
54261;SDS011;40174;52.364;6.452;2022-12-29T07:57:36;6.75;;;0.98;;
54261;SDS011;40174;52.364;6.452;2022-12-29T08:00:03;4.68;;;0.60;;
54261;SDS011;40174;52.364;6.452;2022-12-29T08:02:37;3.95;;;0.85;;
54261;SDS011;40174;52.364;6.452;2022-12-29T08:05:04;7.05;;;0.98;;
54261;SDS011;40174;52.364;6.452;2022-12-29T08:07:31;6.93;;;0.80;;
54261;SDS011;40174;52.364;6.452;2022-12-29T08:09:58;5.50;;;0.75;;
54261;SDS011;40174;52.364;6.452;2022-12-29T08:12:24;9.00;;;0.98;;
54261;SDS011;40174;52.364;6.452;2022-12-29T08:14:52;4.50;;;0.70;;
54261;SDS011;40174;52.364;6.452;2022-12-29T08:17:19;7.13;;;1.00;;
54261;SDS011;40174;52.364;6.452;2022-12-29T08:19:45;8.10;;;1.00;;
54261;SDS011;40174;52.364;6.452;2022-12-29T08:24:53;3.58;;;0.55;;
54261;SDS011;40174;52.364;6.452;2022-12-29T08:27:20;5.63;;;0.75;;
54261;SDS011;40174;52.364;6.452;2022-12-29T08:29:47;6.20;;;0.65;;
54261;SDS011;40174;52.364;6.452;2022-12-29T08:32:15;4.05;;;0.55;;
54261;SDS011;40174;52.364;6.452;2022-12-29T08:34:42;5.07;;;0.70;;
54261;SDS011;40174;52.364;6.452;2022-12-29T08:39:50;1.85;;;0.55;;
54261;SDS011;40174;52.364;6.452;2022-12-29T08:42:17;5.32;;;0.80;;
54261;SDS011;40174;52.364;6.452;2022-12-29T08:44:43;4.93;;;0.70;;
54261;SDS011;40174;52.364;6.452;2022-12-29T08:47:10;5.05;;;1.10;;
54261;SDS011;40174;52.364;6.452;2022-12-29T08:49:38;6.53;;;0.82;;
54261;SDS011;40174;52.364;6.452;2022-12-29T08:52:05;6.43;;;1.48;;
54261;SDS011;40174;52.364;6.452;2022-12-29T08:54:32;3.75;;;0.93;;
54261;SDS011;40174;52.364;6.452;2022-12-29T08:56:58;6.35;;;0.82;;
54261;SDS011;40174;52.364;6.452;2022-12-29T08:59:32;9.20;;;0.93;;
54261;SDS011;40174;52.364;6.452;2022-12-29T09:01:59;6.80;;;1.08;;
54261;SDS011;40174;52.364;6.452;2022-12-29T09:04:26;5.38;;;0.98;;
54261;SDS011;40174;52.364;6.452;2022-12-29T09:06:54;2.38;;;0.70;;
54261;SDS011;40174;52.364;6.452;2022-12-29T09:09:21;3.70;;;0.98;;
54261;SDS011;40174;52.364;6.452;2022-12-29T09:11:48;4.97;;;1.02;;
54261;SDS011;40174;52.364;6.452;2022-12-29T09:14:14;5.72;;;0.88;;
54261;SDS011;40174;52.364;6.452;2022-12-29T09:16:41;8.18;;;1.00;;
54261;SDS011;40174;52.364;6.452;2022-12-29T09:19:25;2.60;;;0.70;;
54261;SDS011;40174;52.364;6.452;2022-12-29T09:21:52;7.60;;;0.80;;
54261;SDS011;40174;52.364;6.452;2022-12-29T09:24:20;6.43;;;1.13;;
54261;SDS011;40174;52.364;6.452;2022-12-29T09:26:46;9.25;;;1.02;;
54261;SDS011;40174;52.364;6.452;2022-12-29T09:29:13;5.20;;;0.80;;
54261;SDS011;40174;52.364;6.452;2022-12-29T09:31:39;4.65;;;0.82;;
54261;SDS011;40174;52.364;6.452;2022-12-29T09:34:06;2.88;;;0.80;;
54261;SDS011;40174;52.364;6.452;2022-12-29T09:36:33;6.78;;;1.27;;
54261;SDS011;40174;52.364;6.452;2022-12-29T09:38:59;5.95;;;1.10;;
54261;SDS011;40174;52.364;6.452;2022-12-29T09:41:29;3.00;;;0.75;;
54261;SDS011;40174;52.364;6.452;2022-12-29T09:44:06;8.70;;;1.02;;
54261;SDS011;40174;52.364;6.452;2022-12-29T09:46:40;4.68;;;0.80;;
54261;SDS011;40174;52.364;6.452;2022-12-29T09:49:13;6.03;;;0.90;;
54261;SDS011;40174;52.364;6.452;2022-12-29T09:51:48;3.65;;;0.63;;
54261;SDS011;40174;52.364;6.452;2022-12-29T09:54:21;3.83;;;0.45;;
54261;SDS011;40174;52.364;6.452;2022-12-29T09:56:58;3.83;;;0.80;;
54261;SDS011;40174;52.364;6.452;2022-12-29T09:59:26;2.60;;;0.60;;
54261;SDS011;40174;52.364;6.452;2022-12-29T10:02:11;5.05;;;0.77;;
54261;SDS011;40174;52.364;6.452;2022-12-29T10:04:46;7.00;;;0.80;;
54261;SDS011;40174;52.364;6.452;2022-12-29T10:07:14;5.65;;;1.02;;
54261;SDS011;40174;52.364;6.452;2022-12-29T10:09:53;4.53;;;0.90;;
54261;SDS011;40174;52.364;6.452;2022-12-29T10:12:34;5.50;;;0.70;;
54261;SDS011;40174;52.364;6.452;2022-12-29T10:17:56;16.98;;;4.10;;
54261;SDS011;40174;52.364;6.452;2022-12-29T10:20:30;13.50;;;2.90;;
54261;SDS011;40174;52.364;6.452;2022-12-29T10:23:04;10.45;;;1.83;;
54261;SDS011;40174;52.364;6.452;2022-12-29T10:25:41;8.55;;;1.08;;
54261;SDS011;40174;52.364;6.452;2022-12-29T10:28:17;7.45;;;0.80;;
54261;SDS011;40174;52.364;6.452;2022-12-29T10:30:48;6.38;;;1.33;;
54261;SDS011;40174;52.364;6.452;2022-12-29T10:33:18;6.70;;;1.00;;
54261;SDS011;40174;52.364;6.452;2022-12-29T10:35:48;11.95;;;1.23;;
54261;SDS011;40174;52.364;6.452;2022-12-29T10:38:19;6.68;;;1.02;;
54261;SDS011;40174;52.364;6.452;2022-12-29T10:40:51;7.22;;;0.60;;
54261;SDS011;40174;52.364;6.452;2022-12-29T10:43:27;6.47;;;0.80;;
54261;SDS011;40174;52.364;6.452;2022-12-29T10:45:56;2.72;;;0.98;;
54261;SDS011;40174;52.364;6.452;2022-12-29T10:48:25;4.60;;;0.90;;
54261;SDS011;40174;52.364;6.452;2022-12-29T10:50:55;3.08;;;0.63;;
54261;SDS011;40174;52.364;6.452;2022-12-29T10:53:25;7.72;;;2.03;;
54261;SDS011;40174;52.364;6.452;2022-12-29T10:55:57;3.10;;;0.55;;
54261;SDS011;40174;52.364;6.452;2022-12-29T10:58:28;8.55;;;1.08;;
54261;SDS011;40174;52.364;6.452;2022-12-29T11:00:57;8.43;;;0.75;;
54261;SDS011;40174;52.364;6.452;2022-12-29T11:03:33;1.73;;;0.47;;
54261;SDS011;40174;52.364;6.452;2022-12-29T11:06:15;6.78;;;1.25;;
54261;SDS011;40174;52.364;6.452;2022-12-29T11:08:50;2.40;;;0.70;;
54261;SDS011;40174;52.364;6.452;2022-12-29T11:11:23;4.30;;;0.77;;
54261;SDS011;40174;52.364;6.452;2022-12-29T11:13:57;6.68;;;0.82;;
54261;SDS011;40174;52.364;6.452;2022-12-29T11:16:28;3.53;;;0.90;;
54261;SDS011;40174;52.364;6.452;2022-12-29T11:18:57;3.22;;;0.60;;
54261;SDS011;40174;52.364;6.452;2022-12-29T11:21:26;5.38;;;1.10;;
54261;SDS011;40174;52.364;6.452;2022-12-29T11:23:57;2.38;;;0.50;;
54261;SDS011;40174;52.364;6.452;2022-12-29T11:26:25;4.50;;;1.10;;
54261;SDS011;40174;52.364;6.452;2022-12-29T11:31:50;1.67;;;0.50;;
54261;SDS011;40174;52.364;6.452;2022-12-29T11:34:20;1.55;;;0.63;;
54261;SDS011;40174;52.364;6.452;2022-12-29T11:36:50;5.47;;;0.80;;
54261;SDS011;40174;52.364;6.452;2022-12-29T11:39:23;4.80;;;1.08;;
54261;SDS011;40174;52.364;6.452;2022-12-29T11:44:23;3.55;;;0.80;;
54261;SDS011;40174;52.364;6.452;2022-12-29T11:46:51;6.45;;;1.02;;
54261;SDS011;40174;52.364;6.452;2022-12-29T11:49:19;4.35;;;0.80;;
54261;SDS011;40174;52.364;6.452;2022-12-29T11:51:47;2.67;;;0.70;;
54261;SDS011;40174;52.364;6.452;2022-12-29T11:54:17;5.82;;;1.52;;
54261;SDS011;40174;52.364;6.452;2022-12-29T11:56:48;5.57;;;1.27;;
54261;SDS011;40174;52.364;6.452;2022-12-29T12:02:35;6.57;;;1.50;;
54261;SDS011;40174;52.364;6.452;2022-12-29T12:05:13;4.30;;;1.00;;
54261;SDS011;40174;52.364;6.452;2022-12-29T12:07:45;7.63;;;0.95;;
54261;SDS011;40174;52.364;6.452;2022-12-29T12:10:21;8.63;;;1.50;;
54261;SDS011;40174;52.364;6.452;2022-12-29T12:12:53;4.28;;;1.27;;
54261;SDS011;40174;52.364;6.452;2022-12-29T12:15:27;5.40;;;1.10;;
54261;SDS011;40174;52.364;6.452;2022-12-29T12:18:00;7.25;;;1.67;;
54261;SDS011;40174;52.364;6.452;2022-12-29T12:20:36;6.05;;;1.48;;
54261;SDS011;40174;52.364;6.452;2022-12-29T12:23:12;9.43;;;1.75;;
54261;SDS011;40174;52.364;6.452;2022-12-29T12:25:49;7.60;;;2.25;;
54261;SDS011;40174;52.364;6.452;2022-12-29T12:28:24;3.75;;;1.40;;
54261;SDS011;40174;52.364;6.452;2022-12-29T12:30:58;7.22;;;1.50;;
54261;SDS011;40174;52.364;6.452;2022-12-29T12:33:28;9.68;;;1.30;;
54261;SDS011;40174;52.364;6.452;2022-12-29T12:36:04;8.07;;;1.50;;
54261;SDS011;40174;52.364;6.452;2022-12-29T12:38:42;2.72;;;1.05;;
54261;SDS011;40174;52.364;6.452;2022-12-29T12:41:20;12.45;;;1.73;;
54261;SDS011;40174;52.364;6.452;2022-12-29T12:44:00;11.65;;;1.50;;
54261;SDS011;40174;52.364;6.452;2022-12-29T12:46:41;9.70;;;1.40;;
54261;SDS011;40174;52.364;6.452;2022-12-29T12:49:37;8.40;;;1.52;;
54261;SDS011;40174;52.364;6.452;2022-12-29T12:52:25;4.55;;;1.15;;
54261;SDS011;40174;52.364;6.452;2022-12-29T12:55:06;6.70;;;1.73;;
54261;SDS011;40174;52.364;6.452;2022-12-29T12:57:47;5.88;;;1.13;;
54261;SDS011;40174;52.364;6.452;2022-12-29T13:00:22;6.00;;;1.17;;
54261;SDS011;40174;52.364;6.452;2022-12-29T13:02:54;9.65;;;1.27;;
54261;SDS011;40174;52.364;6.452;2022-12-29T13:05:33;6.72;;;1.10;;
54261;SDS011;40174;52.364;6.452;2022-12-29T13:08:24;5.78;;;1.40;;
54261;SDS011;40174;52.364;6.452;2022-12-29T13:11:10;8.88;;;1.15;;
54261;SDS011;40174;52.364;6.452;2022-12-29T13:13:56;8.52;;;1.63;;
54261;SDS011;40174;52.364;6.452;2022-12-29T13:16:40;7.15;;;1.55;;
54261;SDS011;40174;52.364;6.452;2022-12-29T13:19:16;4.82;;;0.93;;
54261;SDS011;40174;52.364;6.452;2022-12-29T13:21:56;8.00;;;1.33;;
54261;SDS011;40174;52.364;6.452;2022-12-29T13:24:30;6.95;;;1.40;;
54261;SDS011;40174;52.364;6.452;2022-12-29T13:27:09;10.57;;;1.42;;
54261;SDS011;40174;52.364;6.452;2022-12-29T13:29:43;9.60;;;1.55;;
54261;SDS011;40174;52.364;6.452;2022-12-29T13:32:22;6.78;;;1.30;;
54261;SDS011;40174;52.364;6.452;2022-12-29T13:35:02;6.75;;;1.17;;
54261;SDS011;40174;52.364;6.452;2022-12-29T13:37:40;7.50;;;1.23;;
54261;SDS011;40174;52.364;6.452;2022-12-29T13:40:14;8.30;;;1.85;;
54261;SDS011;40174;52.364;6.452;2022-12-29T13:42:44;6.80;;;1.30;;
54261;SDS011;40174;52.364;6.452;2022-12-29T13:45:14;4.28;;;1.25;;
54261;SDS011;40174;52.364;6.452;2022-12-29T13:47:44;6.38;;;1.52;;
54261;SDS011;40174;52.364;6.452;2022-12-29T13:50:18;5.60;;;1.38;;
54261;SDS011;40174;52.364;6.452;2022-12-29T13:52:48;11.00;;;1.75;;
54261;SDS011;40174;52.364;6.452;2022-12-29T13:55:24;10.03;;;2.13;;
54261;SDS011;40174;52.364;6.452;2022-12-29T13:57:56;11.88;;;1.85;;
54261;SDS011;40174;52.364;6.452;2022-12-29T14:00:28;6.53;;;1.55;;
54261;SDS011;40174;52.364;6.452;2022-12-29T14:03:25;6.70;;;1.92;;
54261;SDS011;40174;52.364;6.452;2022-12-29T14:06:15;5.22;;;1.50;;
54261;SDS011;40174;52.364;6.452;2022-12-29T14:08:46;7.97;;;1.40;;
54261;SDS011;40174;52.364;6.452;2022-12-29T14:11:14;7.63;;;1.88;;
54261;SDS011;40174;52.364;6.452;2022-12-29T14:13:43;10.43;;;1.73;;
54261;SDS011;40174;52.364;6.452;2022-12-29T14:16:21;8.45;;;2.35;;
54261;SDS011;40174;52.364;6.452;2022-12-29T14:18:52;5.88;;;1.90;;
54261;SDS011;40174;52.364;6.452;2022-12-29T14:21:23;8.27;;;1.50;;
54261;SDS011;40174;52.364;6.452;2022-12-29T14:23:56;14.23;;;2.00;;
54261;SDS011;40174;52.364;6.452;2022-12-29T14:27:01;6.57;;;1.95;;
54261;SDS011;40174;52.364;6.452;2022-12-29T14:30:12;7.43;;;1.58;;
54261;SDS011;40174;52.364;6.452;2022-12-29T14:33:27;7.07;;;1.75;;
54261;SDS011;40174;52.364;6.452;2022-12-29T14:35:55;7.78;;;2.20;;
54261;SDS011;40174;52.364;6.452;2022-12-29T14:38:29;7.88;;;1.77;;
54261;SDS011;40174;52.364;6.452;2022-12-29T14:41:18;9.63;;;1.85;;
54261;SDS011;40174;52.364;6.452;2022-12-29T14:43:54;4.80;;;1.35;;
54261;SDS011;40174;52.364;6.452;2022-12-29T14:46:24;8.32;;;1.48;;
54261;SDS011;40174;52.364;6.452;2022-12-29T14:48:54;4.47;;;1.55;;
54261;SDS011;40174;52.364;6.452;2022-12-29T14:51:28;6.28;;;1.48;;
54261;SDS011;40174;52.364;6.452;2022-12-29T14:53:57;4.13;;;1.67;;
54261;SDS011;40174;52.364;6.452;2022-12-29T14:56:24;6.82;;;1.35;;
54261;SDS011;40174;52.364;6.452;2022-12-29T14:58:55;8.13;;;2.70;;
54261;SDS011;40174;52.364;6.452;2022-12-29T15:01:38;19.45;;;8.20;;
54261;SDS011;40174;52.364;6.452;2022-12-29T15:04:14;13.15;;;2.88;;
54261;SDS011;40174;52.364;6.452;2022-12-29T15:06:43;10.77;;;3.65;;
54261;SDS011;40174;52.364;6.452;2022-12-29T15:09:12;15.82;;;6.43;;
54261;SDS011;40174;52.364;6.452;2022-12-29T15:11:50;13.55;;;3.58;;
54261;SDS011;40174;52.364;6.452;2022-12-29T15:14:31;8.25;;;1.73;;
54261;SDS011;40174;52.364;6.452;2022-12-29T15:16:59;10.88;;;3.05;;
54261;SDS011;40174;52.364;6.452;2022-12-29T15:19:27;5.68;;;1.67;;
54261;SDS011;40174;52.364;6.452;2022-12-29T15:21:54;7.53;;;1.40;;
54261;SDS011;40174;52.364;6.452;2022-12-29T15:24:22;8.52;;;1.10;;
54261;SDS011;40174;52.364;6.452;2022-12-29T15:26:50;7.63;;;1.90;;
54261;SDS011;40174;52.364;6.452;2022-12-29T15:29:30;6.35;;;0.75;;
54261;SDS011;40174;52.364;6.452;2022-12-29T15:32:00;4.32;;;0.80;;
54261;SDS011;40174;52.364;6.452;2022-12-29T15:34:36;5.68;;;0.90;;
54261;SDS011;40174;52.364;6.452;2022-12-29T15:37:05;5.30;;;0.90;;
54261;SDS011;40174;52.364;6.452;2022-12-29T15:39:33;2.72;;;0.60;;